»·PEaware :: UAL1399 KPDX-KSEA

UAL1399 :: KPDX-KSEA

FLIGHT INFORMATION

Flight Status: Arrived
Operator:
United Airlines
More flights by this operator :: More flights under this callsign
Pilot: David C. (16084)
Aircraft: SAAB 340
(SF34)
More flights by this aircraft type
Origin: KPDX Portland Intl
United States
Destination: KSEA Seattle-Tacoma Intl
United States
More flights between these airports :: More routes between these airports
Route: COUGA KRIEG HAWKZ7
File this flight plan on PilotEdge
Remarks:
Altitude:
(Current/Filed)
16,000ft
Speed:
(Current/Filed)
287kts
Departed: 16-Oct-19 11:59 AM
Arrived: 16-Oct-19 12:39 PM
Distance/Time
Traveled:
112nm/0:40
Distance/Time
To Go:
Arrived

Flight Plot

Page will automatically refresh every two minutes.


Map Options




Map Legend


Flown Route
Filed Route
Departure Airport
Arrival Airport
Navaid (VOR, NDB)
Fix

Horizontal Profiles

Position Reports

Time Latitude Longitude Heading Altitude Ground
Speed
16-Oct-19 11:21 45.589634 -122.590101 263 27ft 0kts
16-Oct-19 11:22 45.589634 -122.590101 263 27ft 0kts
16-Oct-19 11:23 45.589634 -122.590101 263 27ft 0kts
16-Oct-19 11:24 45.589634 -122.590101 263 27ft 0kts
16-Oct-19 11:25 45.589634 -122.590101 263 27ft 0kts
16-Oct-19 11:26 45.589634 -122.590101 263 27ft 0kts
16-Oct-19 11:27 45.589634 -122.590101 263 27ft 0kts
16-Oct-19 11:28 45.589634 -122.590101 263 27ft 0kts
16-Oct-19 11:29 45.589634 -122.590101 263 27ft 0kts
16-Oct-19 11:30 45.589634 -122.590101 263 27ft 0kts
16-Oct-19 11:31 45.589634 -122.590101 263 27ft 0kts
16-Oct-19 11:32 45.589634 -122.590101 263 27ft 0kts
16-Oct-19 11:33 45.589634 -122.590101 263 27ft 0kts
16-Oct-19 11:34 45.589634 -122.590101 263 27ft 0kts
16-Oct-19 11:35 45.589634 -122.590101 263 27ft 0kts
16-Oct-19 11:36 45.589634 -122.590101 263 27ft 0kts
16-Oct-19 11:37 45.589634 -122.590101 263 27ft 0kts
16-Oct-19 11:38 45.589634 -122.590101 263 27ft 0kts
16-Oct-19 11:39 45.589634 -122.590101 263 27ft 0kts
16-Oct-19 11:40 45.589634 -122.590101 263 27ft 0kts
16-Oct-19 11:41 45.589634 -122.590101 263 27ft 0kts
16-Oct-19 11:42 45.589634 -122.590101 263 27ft 0kts
16-Oct-19 11:43 45.589634 -122.590101 263 27ft 0kts
16-Oct-19 11:44 45.589634 -122.590101 263 27ft 0kts
16-Oct-19 11:45 45.589634 -122.590101 263 27ft 0kts
16-Oct-19 11:46 45.589634 -122.590101 263 27ft 0kts
16-Oct-19 11:47 45.589634 -122.590101 263 27ft 0kts
16-Oct-19 11:48 45.589634 -122.590101 263 27ft 0kts
16-Oct-19 11:49 45.589634 -122.590101 263 27ft 0kts
16-Oct-19 11:50 45.589634 -122.590101 263 27ft 0kts
16-Oct-19 11:51 45.589634 -122.590101 263 27ft 0kts
16-Oct-19 11:52 45.589634 -122.590101 263 27ft 0kts
16-Oct-19 11:53 45.591345 -122.592130 297 27ft 14kts
16-Oct-19 11:54 45.593455 -122.597572 297 27ft 15kts
16-Oct-19 11:55 45.594408 -122.597572 45 27ft 0kts
16-Oct-19 11:56 45.594408 -122.597572 45 27ft 0kts
16-Oct-19 11:57 45.594256 -122.594297 116 27ft 37kts
16-Oct-19 11:58 45.579501 -122.552899 113 858ft 153kts
16-Oct-19 11:59 45.560720 -122.493168 113 3051ft 166kts
16-Oct-19 12:00 45.543455 -122.432143 106 5136ft 170kts
16-Oct-19 12:01 45.584717 -122.411104 341 6778ft 214kts
16-Oct-19 12:02 45.641305 -122.439430 336 8466ft 215kts
16-Oct-19 12:03 45.698070 -122.469029 333 9976ft 218kts
16-Oct-19 12:04 45.755010 -122.498931 331 11367ft 217kts
16-Oct-19 12:05 45.810173 -122.527983 329 12258ft 204kts
16-Oct-19 12:06 45.863156 -122.555952 327 13644ft 199kts
16-Oct-19 12:07 45.915648 -122.583749 326 14803ft 202kts
16-Oct-19 12:08 45.968933 -122.611992 326 15844ft 207kts
16-Oct-19 12:09 46.028804 -122.643920 328 15955ft 250kts
16-Oct-19 12:10 46.097028 -122.678702 341 15936ft 275kts
16-Oct-19 12:11 46.171411 -122.693011 343 15938ft 281kts
16-Oct-19 12:12 46.249760 -122.708347 343 15938ft 283kts
16-Oct-19 12:13 46.328130 -122.722602 350 15926ft 288kts
16-Oct-19 12:14 46.408659 -122.725398 351 15914ft 289kts
16-Oct-19 12:15 46.491930 -122.728434 352 14991ft 313kts
16-Oct-19 12:16 46.579043 -122.731512 352 13695ft 305kts
16-Oct-19 12:17 46.662096 -122.734523 352 12404ft 295kts
16-Oct-19 12:18 46.742899 -122.737445 353 12004ft 287kts
16-Oct-19 12:19 46.816358 -122.702477 40 11996ft 294kts
16-Oct-19 12:20 46.880227 -122.627583 37 11983ft 294kts
16-Oct-19 12:21 46.946258 -122.557518 13 11085ft 282kts
16-Oct-19 12:22 47.019591 -122.526398 18 9556ft 272kts
16-Oct-19 12:23 47.092123 -122.497771 8 8038ft 260kts
16-Oct-19 12:24 47.157916 -122.485983 9 7983ft 256kts
16-Oct-19 12:25 47.229029 -122.474163 7 7983ft 258kts
16-Oct-19 12:26 47.301329 -122.463104 7 7983ft 266kts
16-Oct-19 12:27 47.374695 -122.455229 0 6533ft 260kts
16-Oct-19 12:28 47.443807 -122.455312 359 5982ft 242kts
16-Oct-19 12:29 47.513627 -122.455401 357 5248ft 252kts
16-Oct-19 12:30 47.582446 -122.456872 358 3748ft 244kts
16-Oct-19 12:31 47.642541 -122.437036 68 2978ft 206kts
16-Oct-19 12:32 47.638875 -122.370774 141 2982ft 152kts
16-Oct-19 12:33 47.603778 -122.331977 145 2978ft 167kts
16-Oct-19 12:34 47.564579 -122.306644 180 2452ft 163kts
16-Oct-19 12:35 47.521486 -122.307239 179 1650ft 152kts
16-Oct-19 12:36 47.484694 -122.307571 179 933ft 132kts
16-Oct-19 12:37 47.451382 -122.307821 178 475ft 91kts
16-Oct-19 12:38 47.445612 -122.306434 150 475ft 8kts
16-Oct-19 12:39 47.440351 -122.306259 169 475ft 13kts
16-Oct-19 12:40 47.439904 -122.304841 91 475ft 0kts
16-Oct-19 12:41 47.440468 -122.301384 100 475ft 16kts
16-Oct-19 12:42 47.440133 -122.299121 45 475ft 0kts

Navigation Log

Ident Type
Flight plan parsing failed, navigation log unavailable